Time;durP1;ratioP1;P1;durP2;ratioP2;P2;SDS_P1;SDS_P2;PMS_P1;PMS_P2;Temp;Humidity;BMP_temperature;BMP_pressure;BME280_temperature;BME280_humidity;BME280_pressure;Samples;Min_cycle;Max_cycle;Signal;HPM_P1;HPM_P2
2021/11/28 00:00:07;;;;;;;2.08;0.43;;;17.30;72.80;;;;;;5009960;27;96247;-55
2021/11/28 00:02:39;;;;;;;1.33;0.50;;;17.40;72.10;;;;;;5017259;28;96944;-54
2021/11/28 00:05:14;;;;;;;0.60;0.60;;;17.40;71.20;;;;;;5011708;28;95340;-53
2021/11/28 00:16:02;;;;;;;0.47;0.35;;;17.50;71.80;;;;;;5013984;28;95997;-55
2021/11/28 00:18:36;;;;;;;0.98;0.50;;;17.60;71.60;;;;;;5016927;28;96066;-55
2021/11/28 00:21:08;;;;;;;1.75;0.50;;;17.60;71.60;;;;;;5015703;28;95808;-56
2021/11/28 00:23:41;;;;;;;2.47;0.68;;;17.70;71.60;;;;;;5015080;28;96226;-51
2021/11/28 00:26:16;;;;;;;2.45;0.57;;;17.70;71.40;;;;;;5013887;28;95910;-55
2021/11/28 00:28:49;;;;;;;1.73;0.93;;;17.70;71.40;;;;;;5021964;28;98314;-54
2021/11/28 00:31:22;;;;;;;1.25;0.50;;;17.80;71.40;;;;;;5008433;28;95765;-54
2021/11/28 00:33:55;;;;;;;2.45;0.68;;;17.80;71.30;;;;;;5018028;27;96991;-55
2021/11/28 00:36:26;;;;;;;1.92;0.75;;;17.90;70.50;;;;;;5000888;28;98198;-54
2021/11/28 00:38:56;;;;;;;3.13;0.80;;;17.80;71.30;;;;;;5028096;27;96253;-54
2021/11/28 00:41:27;;;;;;;1.90;0.77;;;17.90;71.40;;;;;;5021424;27;95852;-53
2021/11/28 00:43:58;;;;;;;2.00;0.70;;;18.00;71.30;;;;;;5017631;28;96083;-53
2021/11/28 00:46:29;;;;;;;3.30;0.60;;;18.00;71.20;;;;;;5011071;28;96017;-52
2021/11/28 00:49:03;;;;;;;1.90;0.60;;;18.10;70.20;;;;;;4995677;28;96218;-51
2021/11/28 00:51:37;;;;;;;1.48;0.75;;;18.10;71.80;;;;;;5010555;28;95708;-53
2021/11/28 00:54:09;;;;;;;1.38;0.70;;;18.10;71.00;;;;;;5000801;28;98115;-55
2021/11/28 00:56:40;;;;;;;1.17;0.50;;;18.20;70.90;;;;;;4998859;28;97070;-52
2021/11/28 00:59:11;;;;;;;;;;;18.30;70.90;;;;;;5015181;28;97229;-53
2021/11/28 01:01:43;;;;;;;1.02;0.52;;;18.30;71.50;;;;;;5005390;28;95867;-52
2021/11/28 01:04:22;;;;;;;1.63;0.70;;;18.30;70.80;;;;;;5025480;27;98010;-53
2021/11/28 01:06:56;;;;;;;2.63;0.50;;;18.40;70.20;;;;;;5007933;27;95497;-52
2021/11/28 01:09:27;;;;;;;;;;;18.50;70.80;;;;;;5000464;28;96089;-55
2021/11/28 01:11:59;;;;;;;2.22;0.70;;;18.50;70.80;;;;;;5004911;28;95752;-54
2021/11/28 01:14:31;;;;;;;3.92;0.65;;;18.50;70.70;;;;;;4994764;28;98316;-54
2021/11/28 01:17:05;;;;;;;0.82;0.60;;;18.60;70.70;;;;;;5012443;28;96107;-52
2021/11/28 01:19:37;;;;;;;3.45;0.63;;;18.70;70.70;;;;;;5007410;28;95327;-52
2021/11/28 01:22:13;;;;;;;1.85;0.80;;;18.70;70.60;;;;;;5013143;28;95974;-55
2021/11/28 01:24:46;;;;;;;1.42;0.60;;;18.80;70.60;;;;;;5006652;27;97014;-55
2021/11/28 01:27:18;;;;;;;4.20;0.93;;;18.80;70.50;;;;;;4993291;28;97420;-57
2021/11/28 01:29:51;;;;;;;0.98;0.50;;;18.90;70.60;;;;;;4996489;28;95673;-54
2021/11/28 01:32:23;;;;;;;3.78;1.10;;;18.90;70.50;;;;;;5021718;28;96327;-54
2021/11/28 01:34:54;;;;;;;2.30;0.80;;;19.00;70.50;;;;;;5011885;28;96094;-55
2021/11/28 01:37:24;;;;;;;;;;;19.00;70.40;;;;;;5018200;27;95993;-54
2021/11/28 01:39:56;;;;;;;0.57;0.50;;;19.00;70.30;;;;;;5020603;27;95395;-53
2021/11/28 01:42:59;;;;;;;2.20;0.63;;;19.10;70.30;;;;;;5016448;27;95305;-55
2021/11/28 01:45:32;;;;;;;1.50;0.95;;;19.10;70.20;;;;;;5027927;27;98383;-56
2021/11/28 01:48:06;;;;;;;2.97;1.15;;;19.20;70.10;;;;;;5004329;28;96343;-55
2021/11/28 01:50:40;;;;;;;2.42;1.13;;;19.20;69.20;;;;;;5000425;28;95593;-53
2021/11/28 01:53:17;;;;;;;2.28;1.40;;;19.30;70.00;;;;;;5021480;28;97705;-55
2021/11/28 01:55:49;;;;;;;2.00;1.42;;;19.30;70.00;;;;;;5006448;28;96683;-55
2021/11/28 01:58:40;;;;;;;1.55;0.82;;;19.30;69.80;;;;;;5021729;27;96001;-55
2021/11/28 02:01:14;;;;;;;;;;;19.40;69.80;;;;;;5012519;28;95833;-54
2021/11/28 02:03:47;;;;;;;2.75;1.02;;;19.40;69.80;;;;;;5014923;28;95972;-55
2021/11/28 02:06:21;;;;;;;3.85;1.38;;;19.50;69.70;;;;;;5002923;28;98084;-52
2021/11/28 02:08:54;;;;;;;2.83;1.25;;;19.50;69.70;;;;;;5023068;28;97688;-55
2021/11/28 02:11:26;;;;;;;1.95;1.15;;;19.60;69.70;;;;;;5006676;28;96910;-55
2021/11/28 02:14:00;;;;;;;1.73;1.15;;;19.60;69.60;;;;;;5012294;28;95374;-56
2021/11/28 02:16:36;;;;;;;1.80;1.33;;;19.70;68.80;;;;;;4995837;28;96162;-55
2021/11/28 02:19:11;;;;;;;2.30;1.00;;;19.70;69.50;;;;;;4998499;28;97960;-56
2021/11/28 02:21:45;;;;;;;1.50;0.93;;;19.70;68.90;;;;;;5020708;28;95946;-55
2021/11/28 02:24:17;;;;;;;1.58;1.10;;;19.70;69.70;;;;;;5032106;27;96102;-55
2021/11/28 02:26:49;;;;;;;1.30;1.10;;;19.70;70.00;;;;;;4991328;28;98260;-52
2021/11/28 02:29:22;;;;;;;1.52;1.05;;;19.70;70.30;;;;;;5038413;27;96053;-57
2021/11/28 02:31:55;;;;;;;2.25;1.10;;;19.70;70.50;;;;;;5018173;27;95249;-55
2021/11/28 02:34:25;;;;;;;1.25;0.98;;;19.70;70.40;;;;;;5034059;27;95675;-54
2021/11/28 02:36:56;;;;;;;2.47;0.88;;;19.70;70.30;;;;;;5000273;27;99054;-55
2021/11/28 02:39:28;;;;;;;2.17;1.20;;;19.70;70.20;;;;;;5011472;27;97072;-55
2021/11/28 02:41:59;;;;;;;2.45;1.35;;;19.70;70.20;;;;;;5001146;28;95955;-54
2021/11/28 02:44:31;;;;;;;1.50;1.17;;;19.70;69.40;;;;;;5018586;28;95591;-55
2021/11/28 02:47:03;;;;;;;3.85;1.30;;;19.80;70.20;;;;;;4992882;28;98345;-57
2021/11/28 02:49:36;;;;;;;3.03;0.93;;;19.80;69.60;;;;;;5010613;27;96589;-58
2021/11/28 02:52:14;;;;;;;2.90;1.30;;;19.80;69.30;;;;;;5014929;28;95793;-56
2021/11/28 02:54:45;;;;;;;1.17;0.90;;;19.80;69.40;;;;;;4998193;28;95554;-58
2021/11/28 02:57:16;;;;;;;1.58;0.90;;;19.80;69.50;;;;;;4974825;28;98200;-58
2021/11/28 02:59:47;;;;;;;2.05;1.10;;;19.90;69.40;;;;;;5000455;28;98064;-57
2021/11/28 03:02:23;;;;;;;1.10;0.82;;;19.90;68.90;;;;;;4989962;28;95952;-58
2021/11/28 03:05:08;;;;;;;2.65;1.13;;;19.90;67.90;;;;;;5016227;28;95946;-59
2021/11/28 03:07:44;;;;;;;1.90;0.80;;;19.90;68.10;;;;;;5037553;27;98846;-57
2021/11/28 03:10:43;;;;;;;3.50;0.88;;;20.00;68.30;;;;;;5030603;27;95801;-57
2021/11/28 03:13:21;;;;;;;1.77;0.90;;;20.00;68.30;;;;;;5020018;27;95744;-58
2021/11/28 03:15:55;;;;;;;0.98;0.77;;;20.10;68.20;;;;;;5013023;28;98584;-57
2021/11/28 03:18:28;;;;;;;0.77;0.77;;;20.10;68.40;;;;;;5008940;27;99176;-53
2021/11/28 03:21:10;;;;;;;1.45;0.80;;;20.40;69.00;;;;;;5024826;27;95899;-56
2021/11/28 03:23:43;;;;;;;1.57;0.80;;;20.70;68.80;;;;;;5010055;28;95534;-56
2021/11/28 03:26:24;;;;;;;2.25;0.70;;;20.90;68.40;;;;;;5009493;28;96039;-56
2021/11/28 03:29:03;;;;;;;0.70;0.70;;;21.10;68.10;;;;;;4998753;28;96161;-55
2021/11/28 03:31:56;;;;;;;1.10;0.80;;;21.40;66.80;;;;;;5020386;27;95924;-57
2021/11/28 03:34:37;;;;;;;1.38;1.25;;;21.70;67.00;;;;;;5007850;28;95933;-58
2021/11/28 03:37:16;;;;;;;0.73;0.63;;;21.90;66.80;;;;;;5000107;27;97973;-57
2021/11/28 03:39:47;;;;;;;1.23;0.63;;;22.10;66.40;;;;;;4998121;27;97929;-55
2021/11/28 03:42:24;;;;;;;1.58;0.70;;;22.40;65.80;;;;;;5001347;28;96013;-57
2021/11/28 03:44:55;;;;;;;0.90;0.90;;;22.60;65.70;;;;;;4999965;28;96007;-56
2021/11/28 03:47:31;;;;;;;1.38;0.82;;;22.70;65.50;;;;;;5002200;28;95849;-56
2021/11/28 03:50:10;;;;;;;1.03;0.50;;;22.90;65.40;;;;;;5001744;28;98558;-57
2021/11/28 03:52:42;;;;;;;2.47;1.05;;;23.00;65.30;;;;;;5025311;27;97950;-58
2021/11/28 03:55:14;;;;;;;0.70;0.60;;;23.10;65.10;;;;;;5010188;28;95246;-59
2021/11/28 03:57:45;;;;;;;1.15;0.73;;;23.30;64.80;;;;;;5000211;28;95422;-55
2021/11/28 04:00:16;;;;;;;6.82;0.90;;;23.50;64.70;;;;;;5005067;28;97921;-58
2021/11/28 04:02:50;;;;;;;1.30;1.02;;;23.50;64.50;;;;;;4999064;28;95273;-55
2021/11/28 04:05:28;;;;;;;0.70;0.70;;;23.70;64.40;;;;;;5002832;27;95986;-54
2021/11/28 04:07:59;;;;;;;1.20;1.00;;;23.80;63.10;;;;;;4997296;28;95830;-58
2021/11/28 04:10:33;;;;;;;0.63;0.63;;;24.00;63.60;;;;;;5021682;27;96139;-58
2021/11/28 04:13:06;;;;;;;1.48;1.00;;;24.10;63.40;;;;;;4998044;28;96135;-58
2021/11/28 04:15:43;;;;;;;1.75;1.05;;;24.10;63.20;;;;;;4996653;28;95820;-58
2021/11/28 04:18:19;;;;;;;0.90;0.75;;;24.30;63.10;;;;;;5026624;28;95658;-59
2021/11/28 04:20:52;;;;;;;0.40;0.40;;;24.30;62.70;;;;;;5001759;28;98504;-65
2021/11/28 04:23:26;;;;;;;0.75;0.50;;;24.50;62.60;;;;;;4993341;28;97813;-60
2021/11/28 04:25:59;;;;;;;0.80;0.80;;;24.60;62.60;;;;;;5017328;28;95995;-55
2021/11/28 04:28:31;;;;;;;1.30;0.57;;;24.70;62.20;;;;;;5007240;28;95673;-57
2021/11/28 04:31:04;;;;;;;1.63;0.63;;;24.80;61.40;;;;;;4993649;28;100349;-59
2021/11/28 04:33:35;;;;;;;0.90;0.60;;;24.90;61.90;;;;;;5028647;27;95261;-58
2021/11/28 04:36:07;;;;;;;0.60;0.43;;;25.00;61.70;;;;;;5001767;28;96039;-56
2021/11/28 04:38:40;;;;;;;0.40;0.40;;;25.10;61.60;;;;;;5033254;27;95877;-59
2021/11/28 04:41:11;;;;;;;1.27;0.70;;;25.10;61.50;;;;;;4996452;28;96709;-59
2021/11/28 04:43:47;;;;;;;0.65;0.65;;;25.20;61.30;;;;;;5001168;27;98061;-56
2021/11/28 04:46:17;;;;;;;0.63;0.60;;;25.20;61.30;;;;;;5001865;28;95832;-61
2021/11/28 04:48:50;;;;;;;4.72;0.80;;;25.30;61.20;;;;;;5030066;27;95731;-58
2021/11/28 04:51:34;;;;;;;0.52;0.50;;;25.40;60.90;;;;;;4985313;28;98092;-62
2021/11/28 04:54:12;;;;;;;0.85;0.80;;;25.50;60.80;;;;;;5020522;27;96321;-60
2021/11/28 04:56:42;;;;;;;1.20;0.63;;;25.50;60.70;;;;;;5021147;27;96021;-61
2021/11/28 04:59:13;;;;;;;1.25;0.80;;;25.50;60.40;;;;;;4991443;28;95837;-54
2021/11/28 05:01:47;;;;;;;2.03;0.98;;;25.10;52.90;;;;;;4988446;28;96076;-53
2021/11/28 05:04:23;;;;;;;1.73;1.08;;;24.30;50.10;;;;;;5024144;27;96469;-53
2021/11/28 05:07:30;;;;;;;3.08;1.13;;;23.70;52.00;;;;;;4980641;28;95604;-50
2021/11/28 05:10:03;;;;;;;1.73;1.05;;;23.40;52.10;;;;;;4990701;28;96076;-54
2021/11/28 05:12:48;;;;;;;3.13;0.82;;;23.20;52.20;;;;;;4991836;28;96206;-52
2021/11/28 05:15:25;;;;;;;2.22;1.20;;;22.90;52.00;;;;;;5021432;27;96431;-55
2021/11/28 05:18:26;;;;;;;2.42;1.17;;;22.80;51.40;;;;;;4997996;28;96146;-54
2021/11/28 05:21:18;;;;;;;4.05;1.50;;;22.70;51.80;;;;;;5000958;28;95471;-54
2021/11/28 05:23:50;;;;;;;2.60;1.10;;;22.60;52.00;;;;;;5025097;27;96136;-50
2021/11/28 05:26:27;;;;;;;4.22;1.73;;;22.50;52.10;;;;;;5025941;27;96243;-54
2021/11/28 05:29:00;;;;;;;3.10;1.35;;;22.40;52.00;;;;;;4993823;28;95551;-51
2021/11/28 05:31:33;;;;;;;1.92;1.20;;;22.30;52.10;;;;;;4989183;27;95666;-55
2021/11/28 05:34:21;;;;;;;2.22;1.33;;;22.30;51.90;;;;;;5005786;27;96325;-50
2021/11/28 05:37:27;;;;;;;4.63;1.15;;;22.20;52.10;;;;;;4953936;28;96247;-52
2021/11/28 05:40:04;;;;;;;2.78;1.40;;;22.20;52.30;;;;;;4982323;28;96244;-48
2021/11/28 05:42:38;;;;;;;5.20;2.00;;;22.20;53.00;;;;;;4997847;28;95922;-49
2021/11/28 05:45:10;;;;;;;5.25;1.15;;;22.20;53.50;;;;;;5007600;28;96111;-49
2021/11/28 05:48:00;;;;;;;5.60;1.30;;;22.20;54.70;;;;;;5001640;27;95721;-50
2021/11/28 05:50:41;;;;;;;3.78;1.20;;;22.20;55.80;;;;;;5009178;27;95801;-50
2021/11/28 05:53:16;;;;;;;4.78;1.70;;;22.20;55.80;;;;;;4993107;28;96218;-50
2021/11/28 05:55:46;;;;;;;;;;;22.20;56.30;;;;;;5036298;27;97984;-50
2021/11/28 05:58:18;;;;;;;4.78;1.98;;;22.20;56.50;;;;;;4989930;28;97765;-50
2021/11/28 06:00:57;;;;;;;3.83;1.70;;;22.20;56.90;;;;;;5010696;28;95800;-50
2021/11/28 06:03:29;;;;;;;4.97;2.25;;;22.10;57.20;;;;;;5020928;27;95784;-51
2021/11/28 06:06:31;;;;;;;2.90;1.90;;;22.20;57.50;;;;;;4979549;28;96900;-50
2021/11/28 06:09:13;;;;;;;5.63;1.67;;;22.20;57.90;;;;;;4991443;28;97765;-51
2021/11/28 06:11:46;;;;;;;6.15;2.38;;;22.20;58.40;;;;;;4994586;28;95910;-49
2021/11/28 06:14:18;;;;;;;3.67;1.55;;;22.20;57.20;;;;;;5001131;28;95775;-50
2021/11/28 06:17:13;;;;;;;5.13;1.80;;;22.20;58.10;;;;;;5030151;27;97719;-50
2021/11/28 06:19:48;;;;;;;2.80;1.50;;;22.10;58.00;;;;;;5006649;28;95785;-49
2021/11/28 06:22:22;;;;;;;8.70;1.52;;;22.10;58.20;;;;;;5011002;27;95340;-49
2021/11/28 06:24:57;;;;;;;5.90;1.98;;;22.20;58.10;;;;;;5029870;27;95334;-49
2021/11/28 06:27:42;;;;;;;5.13;1.77;;;22.20;58.00;;;;;;4994182;28;96462;-49
2021/11/28 06:30:16;;;;;;;6.65;2.65;;;22.10;58.20;;;;;;4999742;28;95980;-49
2021/11/28 06:33:08;;;;;;;5.25;1.77;;;22.10;58.80;;;;;;5015715;27;95766;-51
2021/11/28 06:36:00;;;;;;;5.95;1.85;;;22.20;58.50;;;;;;4986208;28;96131;-48
2021/11/28 06:38:51;;;;;;;5.65;2.22;;;22.20;58.70;;;;;;4989094;27;96516;-48
2021/11/28 06:41:40;;;;;;;5.93;1.70;;;22.20;58.40;;;;;;5011227;27;95982;-49
2021/11/28 06:44:14;;;;;;;4.25;1.98;;;22.20;57.80;;;;;;5000811;28;97571;-49
2021/11/28 06:46:48;;;;;;;3.20;1.73;;;22.30;57.50;;;;;;5002450;28;95899;-53
2021/11/28 06:49:21;;;;;;;6.18;1.58;;;22.30;57.00;;;;;;5003320;27;98947;-50
2021/11/28 06:52:12;;;;;;;;;;;22.30;57.10;;;;;;4959888;28;96335;-48
2021/11/28 06:55:13;;;;;;;7.22;1.67;;;22.20;57.50;;;;;;5016394;27;95376;-49
2021/11/28 06:57:43;;;;;;;4.93;1.80;;;22.30;58.30;;;;;;5032554;27;96157;-48
2021/11/28 07:00:17;;;;;;;6.18;1.50;;;22.30;58.60;;;;;;5009617;28;98979;-49
2021/11/28 07:02:48;;;;;;;7.85;1.42;;;22.30;58.20;;;;;;5018214;27;97830;-50
2021/11/28 07:05:54;;;;;;;4.80;1.67;;;22.30;58.00;;;;;;4972935;28;96443;-48
2021/11/28 07:08:28;;;;;;;7.80;1.90;;;22.30;57.80;;;;;;4998710;28;95589;-49
2021/11/28 07:11:00;;;;;;;11.57;2.13;;;22.20;57.40;;;;;;5000100;28;97942;-48
2021/11/28 07:13:32;;;;;;;8.95;1.77;;;22.20;57.20;;;;;;5032898;27;98099;-50
2021/11/28 07:16:06;;;;;;;7.72;1.45;;;22.20;57.30;;;;;;4993270;28;96089;-49
2021/11/28 07:18:45;;;;;;;11.25;2.22;;;22.20;57.20;;;;;;5030740;27;96020;-49
2021/11/28 07:21:29;;;;;;;7.00;2.80;;;22.20;57.60;;;;;;4997632;28;96196;-50
2021/11/28 07:24:04;;;;;;;10.48;1.98;;;22.20;57.90;;;;;;5014227;28;98393;-48
2021/11/28 07:26:37;;;;;;;10.00;2.20;;;22.20;57.00;;;;;;5007112;27;96214;-50
2021/11/28 07:29:10;;;;;;;4.57;1.38;;;22.20;57.80;;;;;;4995858;28;96103;-50
2021/11/28 07:31:42;;;;;;;4.95;1.63;;;22.20;57.80;;;;;;4993527;27;98390;-49
2021/11/28 07:34:33;;;;;;;8.50;1.58;;;22.20;56.80;;;;;;4985782;28;95894;-48
2021/11/28 07:37:35;;;;;;;4.60;1.50;;;22.20;58.40;;;;;;5023391;27;96395;-49
2021/11/28 07:40:05;;;;;;;9.90;2.23;;;22.20;58.60;;;;;;5000019;27;95755;-48
2021/11/28 07:42:43;;;;;;;6.68;1.90;;;22.20;58.50;;;;;;4995770;28;96258;-48
2021/11/28 07:45:51;;;;;;;4.95;1.85;;;22.20;58.40;;;;;;5011401;28;95748;-49
2021/11/28 07:48:44;;;;;;;4.95;1.40;;;22.30;58.50;;;;;;5012745;28;95777;-48
2021/11/28 07:51:23;;;;;;;3.78;1.58;;;22.30;59.30;;;;;;5010929;28;96077;-49
2021/11/28 07:53:57;;;;;;;5.65;2.30;;;22.30;59.60;;;;;;5016404;28;96082;-48
2021/11/28 07:56:29;;;;;;;6.90;1.95;;;22.30;59.20;;;;;;5016478;28;95944;-49
2021/11/28 07:59:19;;;;;;;9.77;1.42;;;22.30;59.60;;;;;;5004498;28;96246;-49
2021/11/28 08:01:53;;;;;;;5.70;1.70;;;22.30;59.60;;;;;;5008109;27;96160;-49
2021/11/28 08:04:53;;;;;;;5.40;1.83;;;22.30;58.50;;;;;;4986415;28;96607;-49
2021/11/28 08:07:46;;;;;;;26.00;2.47;;;22.30;58.70;;;;;;5013152;28;96136;-48
2021/11/28 08:10:36;;;;;;;6.60;2.05;;;22.20;58.30;;;;;;5020356;28;95781;-50
2021/11/28 08:13:10;;;;;;;9.07;2.25;;;22.30;58.10;;;;;;4991959;28;96182;-48
2021/11/28 08:15:41;;;;;;;8.25;2.20;;;22.30;58.10;;;;;;5008333;28;96112;-49
2021/11/28 08:18:16;;;;;;;8.45;2.13;;;22.20;57.90;;;;;;5003143;28;96057;-48
2021/11/28 08:20:50;;;;;;;4.55;1.52;;;22.20;57.50;;;;;;5014435;28;96223;-49
2021/11/28 08:23:22;;;;;;;7.00;1.92;;;22.30;57.40;;;;;;4995153;28;95874;-48
2021/11/28 08:25:54;;;;;;;4.72;1.83;;;22.20;57.20;;;;;;5031165;27;98326;-49
2021/11/28 08:28:29;;;;;;;7.20;2.05;;;22.20;57.20;;;;;;5009308;28;95773;-49
2021/11/28 08:31:01;;;;;;;6.28;1.75;;;22.20;57.00;;;;;;5018835;28;96124;-48
2021/11/28 08:34:01;;;;;;;6.55;2.13;;;22.20;57.20;;;;;;4982214;28;95561;-52
2021/11/28 08:36:42;;;;;;;6.20;1.90;;;22.20;57.30;;;;;;5008482;28;96592;-54
2021/11/28 08:39:13;;;;;;;7.17;1.70;;;22.20;57.30;;;;;;5014990;27;96618;-50
2021/11/28 08:41:44;;;;;;;6.35;1.88;;;22.10;56.30;;;;;;4991952;27;95760;-53
2021/11/28 08:44:16;;;;;;;8.98;1.83;;;22.10;56.80;;;;;;5024158;28;96093;-52
2021/11/28 08:46:46;;;;;;;6.15;2.10;;;22.00;57.80;;;;;;5013083;28;97040;-50
2021/11/28 08:49:18;;;;;;;8.15;2.00;;;22.00;57.10;;;;;;5017436;28;95749;-50
2021/11/28 08:51:49;;;;;;;5.18;1.88;;;22.00;58.00;;;;;;5009666;28;95968;-51
2021/11/28 08:54:21;;;;;;;3.47;1.50;;;21.90;58.10;;;;;;5015921;28;95323;-51
2021/11/28 08:56:53;;;;;;;6.32;1.75;;;21.90;58.20;;;;;;5019247;28;96652;-52
2021/11/28 08:59:25;;;;;;;5.03;1.65;;;21.80;58.80;;;;;;5017504;28;95494;-55
2021/11/28 09:01:58;;;;;;;5.47;2.05;;;21.70;58.50;;;;;;5020744;28;95760;-53
2021/11/28 09:04:31;;;;;;;6.03;1.63;;;21.70;58.70;;;;;;5023698;28;96723;-53
2021/11/28 09:07:01;;;;;;;4.07;2.13;;;21.70;58.70;;;;;;5014827;28;96082;-54
2021/11/28 09:09:35;;;;;;;5.40;2.08;;;21.70;58.50;;;;;;5013496;28;96428;-50
2021/11/28 09:12:09;;;;;;;5.30;1.73;;;21.60;58.80;;;;;;5017439;28;95831;-51
2021/11/28 09:14:41;;;;;;;4.35;1.60;;;21.60;58.80;;;;;;5016213;28;95843;-52
2021/11/28 09:17:16;;;;;;;4.50;1.88;;;21.50;58.90;;;;;;5019826;28;96103;-51
2021/11/28 09:20:06;;;;;;;5.35;1.95;;;21.50;59.00;;;;;;5014729;28;95827;-51
2021/11/28 09:25:15;;;;;;;13.85;2.22;;;21.50;59.00;;;;;;5008853;28;95737;-52
2021/11/28 09:27:49;;;;;;;18.38;2.80;;;21.40;59.00;;;;;;5009229;28;96069;-51
2021/11/28 09:30:26;;;;;;;7.55;2.35;;;21.40;59.00;;;;;;5015868;28;95681;-53
2021/11/28 09:33:00;;;;;;;11.82;2.63;;;21.40;59.00;;;;;;5014278;28;95560;-53
2021/11/28 09:35:33;;;;;;;6.65;2.03;;;21.30;59.00;;;;;;5016926;28;95383;-50
2021/11/28 09:38:03;;;;;;;7.00;2.05;;;21.30;59.20;;;;;;5013697;28;96692;-52
2021/11/28 09:40:33;;;;;;;11.43;1.80;;;21.30;58.40;;;;;;5015350;27;95786;-53
2021/11/28 09:43:07;;;;;;;7.10;1.50;;;21.20;59.20;;;;;;5015516;27;95668;-52
2021/11/28 09:45:38;;;;;;;7.43;2.10;;;21.20;58.10;;;;;;5019836;28;95948;-50
2021/11/28 09:48:10;;;;;;;;;;;21.10;59.20;;;;;;5016383;28;96125;-50
2021/11/28 09:50:42;;;;;;;9.70;2.10;;;21.10;59.30;;;;;;5017916;28;96084;-50
2021/11/28 09:53:37;;;;;;;5.68;1.67;;;21.00;59.90;;;;;;5016987;28;96186;-50
2021/11/28 09:56:10;;;;;;;9.07;1.60;;;21.00;60.40;;;;;;5016747;28;95276;-50
2021/11/28 09:58:42;;;;;;;13.70;3.30;;;21.00;60.40;;;;;;4994265;28;96922;-52
2021/11/28 10:01:14;;;;;;;5.05;1.95;;;21.00;60.80;;;;;;5015240;28;95931;-50
2021/11/28 10:03:46;;;;;;;6.80;1.98;;;21.00;60.10;;;;;;5011069;28;95724;-51
2021/11/28 10:06:19;;;;;;;4.57;1.67;;;20.90;60.20;;;;;;5013131;27;95919;-50
2021/11/28 10:08:53;;;;;;;6.35;1.83;;;20.90;60.20;;;;;;5011446;28;95850;-49
2021/11/28 10:11:26;;;;;;;7.53;1.83;;;20.80;60.10;;;;;;5013205;28;96278;-51
2021/11/28 10:13:58;;;;;;;7.93;2.40;;;20.80;60.10;;;;;;5010731;28;95656;-52
2021/11/28 10:16:31;;;;;;;8.65;1.73;;;20.70;60.10;;;;;;5011730;28;95906;-51
2021/11/28 10:19:03;;;;;;;7.53;1.88;;;20.70;60.10;;;;;;5017106;28;96602;-51
2021/11/28 10:21:37;;;;;;;9.27;2.10;;;20.60;60.00;;;;;;5020425;28;95979;-50
2021/11/28 10:24:13;;;;;;;7.95;1.50;;;20.60;60.10;;;;;;5016688;28;96208;-52
2021/11/28 10:26:54;;;;;;;11.00;2.38;;;20.50;60.30;;;;;;5016687;28;95960;-49
2021/11/28 10:29:31;;;;;;;5.28;1.92;;;20.50;59.60;;;;;;5005763;28;96884;-52
2021/11/28 10:32:15;;;;;;;12.98;2.42;;;20.50;60.60;;;;;;5009574;28;95286;-53
2021/11/28 10:35:22;;;;;;;12.52;2.22;;;20.50;60.80;;;;;;5001604;28;96261;-56
2021/11/28 10:37:54;;;;;;;10.15;2.08;;;20.40;61.10;;;;;;5017697;28;96182;-55
2021/11/28 10:40:29;;;;;;;6.93;2.00;;;20.40;61.30;;;;;;5010832;27;96290;-54
2021/11/28 10:43:14;;;;;;;7.93;1.95;;;20.40;61.50;;;;;;5017214;27;97141;-57
2021/11/28 10:45:49;;;;;;;6.45;1.83;;;20.30;61.50;;;;;;5020480;28;95889;-56
2021/11/28 10:48:28;;;;;;;6.28;1.63;;;20.40;61.50;;;;;;5013755;28;95197;-56
2021/11/28 10:51:00;;;;;;;7.75;1.83;;;20.30;61.60;;;;;;5016171;28;96853;-55
2021/11/28 10:53:33;;;;;;;7.15;1.77;;;20.30;61.60;;;;;;4999506;28;95720;-56
2021/11/28 10:56:05;;;;;;;7.80;2.05;;;20.30;61.60;;;;;;5018171;28;96018;-54
2021/11/28 10:58:36;;;;;;;9.18;1.60;;;20.30;61.50;;;;;;5013752;27;96099;-55
2021/11/28 11:01:09;;;;;;;7.15;2.10;;;20.20;61.60;;;;;;5011960;28;96138;-49
2021/11/28 11:03:48;;;;;;;6.97;1.85;;;20.20;62.00;;;;;;5009958;28;96224;-51
2021/11/28 11:06:25;;;;;;;5.68;1.23;;;20.20;62.40;;;;;;5011623;28;95728;-55
2021/11/28 11:09:18;;;;;;;10.68;1.80;;;20.20;62.30;;;;;;5014255;28;95850;-55
2021/11/28 11:11:53;;;;;;;14.93;4.50;;;20.20;62.70;;;;;;5012381;27;96402;-53
2021/11/28 11:14:25;;;;;;;23.23;5.35;;;20.10;62.00;;;;;;5010039;28;96365;-54
2021/11/28 11:17:06;;;;;;;11.50;3.63;;;20.10;63.20;;;;;;5017285;28;95598;-56
2021/11/28 11:19:41;;;;;;;11.32;2.65;;;20.10;63.40;;;;;;5012934;28;95783;-55
2021/11/28 11:22:18;;;;;;;7.57;2.17;;;20.00;63.30;;;;;;5018365;28;96067;-54
2021/11/28 11:24:58;;;;;;;6.03;2.55;;;20.00;63.30;;;;;;5011654;28;95690;-55
2021/11/28 11:27:40;;;;;;;7.57;2.10;;;19.90;63.50;;;;;;5013976;27;96054;-53
2021/11/28 11:30:21;;;;;;;9.02;2.10;;;19.90;63.60;;;;;;5011556;28;95387;-54
2021/11/28 11:33:01;;;;;;;6.25;2.25;;;19.90;63.70;;;;;;5017489;28;96110;-55
2021/11/28 11:35:51;;;;;;;5.28;1.77;;;19.90;63.60;;;;;;5012928;28;96446;-54
2021/11/28 11:38:23;;;;;;;6.43;2.03;;;19.80;63.60;;;;;;5008545;28;95676;-54
2021/11/28 11:40:56;;;;;;;7.80;2.22;;;19.80;63.60;;;;;;5017791;27;100477;-55
2021/11/28 11:43:31;;;;;;;8.02;2.10;;;19.70;63.50;;;;;;5015345;27;96257;-51
2021/11/28 11:46:09;;;;;;;4.68;1.83;;;19.70;63.50;;;;;;4999607;28;96328;-56
2021/11/28 11:48:40;;;;;;;9.80;2.20;;;19.60;63.40;;;;;;5020750;28;95295;-54
2021/11/28 11:51:12;;;;;;;7.70;2.05;;;19.50;63.40;;;;;;5016275;28;95650;-56
2021/11/28 11:53:44;;;;;;;8.30;2.20;;;19.40;63.40;;;;;;5018895;28;96467;-55
2021/11/28 11:56:18;;;;;;;;;;;19.40;63.50;;;;;;5024341;28;95929;-53
2021/11/28 11:59:17;;;;;;;7.82;2.33;;;19.40;63.40;;;;;;5020190;28;95933;-55
2021/11/28 12:02:00;;;;;;;6.20;2.40;;;19.30;63.40;;;;;;5029608;27;95417;-54
2021/11/28 12:04:41;;;;;;;9.23;2.38;;;19.20;63.40;;;;;;5014108;28;97336;-51
2021/11/28 12:07:12;;;;;;;4.33;1.20;;;19.20;63.50;;;;;;4997315;28;95676;-52
2021/11/28 12:09:45;;;;;;;5.10;1.80;;;19.20;63.60;;;;;;5016659;28;95187;-53
2021/11/28 12:12:17;;;;;;;8.13;2.10;;;19.10;63.70;;;;;;5019855;28;95905;-53
2021/11/28 12:15:17;;;;;;;7.35;2.15;;;19.10;63.70;;;;;;5020874;27;96452;-52
2021/11/28 12:17:51;;;;;;;8.15;2.35;;;19.10;63.60;;;;;;5019274;28;98157;-57
2021/11/28 12:20:47;;;;;;;6.25;1.65;;;19.00;62.80;;;;;;5023154;28;96066;-52
2021/11/28 12:23:55;;;;;;;6.30;2.17;;;19.00;63.80;;;;;;5016955;28;95526;-55
2021/11/28 12:26:30;;;;;;;7.93;1.75;;;18.90;62.90;;;;;;5023946;27;96153;-54
2021/11/28 12:29:18;;;;;;;5.47;1.98;;;18.80;63.80;;;;;;5019988;27;95861;-54
2021/11/28 12:31:53;;;;;;;7.28;1.88;;;18.80;63.80;;;;;;5025473;28;97401;-55
2021/11/28 12:34:41;;;;;;;6.28;2.25;;;18.70;63.90;;;;;;5024758;28;96074;-53
2021/11/28 12:37:26;;;;;;;4.85;1.85;;;18.70;64.00;;;;;;5018307;27;96357;-58
2021/11/28 12:40:22;;;;;;;3.83;1.95;;;18.70;64.10;;;;;;5012501;27;95820;-52
2021/11/28 12:43:16;;;;;;;9.98;2.58;;;18.60;64.10;;;;;;4994375;28;96026;-55
2021/11/28 12:45:47;;;;;;;6.57;1.60;;;18.60;64.20;;;;;;5008578;28;95810;-55
2021/11/28 12:48:17;;;;;;;;;;;18.60;64.10;;;;;;5011415;28;96939;-55
2021/11/28 12:51:07;;;;;;;7.88;2.05;;;18.50;64.10;;;;;;5020794;28;95702;-54
2021/11/28 12:53:43;;;;;;;3.00;1.52;;;18.50;64.20;;;;;;5012602;28;95725;-51
2021/11/28 12:56:13;;;;;;;5.25;1.40;;;18.40;64.20;;;;;;5032245;27;95600;-52
2021/11/28 12:59:09;;;;;;;3.95;1.42;;;18.40;64.20;;;;;;5014491;28;96186;-53
2021/11/28 13:01:51;;;;;;;7.97;2.28;;;18.40;64.40;;;;;;5014028;28;97930;-55
2021/11/28 13:04:41;;;;;;;9.00;2.33;;;18.30;64.40;;;;;;5011835;28;95712;-55
2021/11/28 13:07:33;;;;;;;10.10;1.42;;;18.30;64.50;;;;;;5015911;28;96263;-54
2021/11/28 13:10:21;;;;;;;4.10;1.25;;;18.30;63.60;;;;;;5019675;28;96700;-53
2021/11/28 13:12:52;;;;;;;6.35;2.08;;;18.30;64.80;;;;;;5025871;28;95626;-55
2021/11/28 13:15:32;;;;;;;;;;;18.20;64.70;;;;;;5023183;28;95488;-54
2021/11/28 13:18:11;;;;;;;5.03;1.58;;;18.20;64.70;;;;;;4999719;28;95530;-55
2021/11/28 13:21:25;;;;;;;7.10;1.70;;;18.20;64.70;;;;;;5016462;28;96277;-54
2021/11/28 13:24:16;;;;;;;7.57;2.38;;;18.10;64.80;;;;;;5018774;27;95748;-53
2021/11/28 13:27:07;;;;;;;4.53;1.17;;;18.10;64.90;;;;;;5015830;28;96272;-54
2021/11/28 13:29:59;;;;;;;9.10;1.73;;;18.00;64.90;;;;;;5031935;27;97516;-54
2021/11/28 13:32:35;;;;;;;10.27;1.92;;;18.00;65.10;;;;;;5021938;28;96100;-52
2021/11/28 13:35:16;;;;;;;5.63;1.45;;;18.00;65.10;;;;;;5011903;28;95748;-52
2021/11/28 13:37:47;;;;;;;6.47;1.85;;;18.00;65.10;;;;;;4998753;28;95626;-55
2021/11/28 13:40:20;;;;;;;7.80;1.50;;;18.00;65.40;;;;;;5021635;27;95446;-53
2021/11/28 13:42:50;;;;;;;6.00;1.60;;;18.00;65.60;;;;;;5017025;27;97035;-54
2021/11/28 13:45:21;;;;;;;2.40;1.20;;;18.10;65.90;;;;;;5023147;28;95732;-52
2021/11/28 13:47:52;;;;;;;5.50;1.20;;;18.10;65.80;;;;;;5017842;27;95574;-56
2021/11/28 13:50:24;;;;;;;4.13;1.48;;;18.10;66.10;;;;;;5013484;28;95715;-52